createdAt,value
2018-12-31T00:01:32.233Z,13.40
2018-12-31T00:04:01.218Z,13.42
2018-12-31T00:06:30.172Z,13.41
2018-12-31T00:08:59.267Z,13.42
2018-12-31T00:11:28.288Z,13.43
2018-12-31T00:13:57.361Z,13.44
2018-12-31T00:16:26.374Z,13.45
2018-12-31T00:18:55.339Z,13.46
2018-12-31T00:21:24.371Z,13.48
2018-12-31T00:23:53.349Z,13.50
2018-12-31T00:26:22.449Z,13.49
2018-12-31T00:28:51.496Z,13.50
2018-12-31T00:31:20.623Z,13.51
2018-12-31T00:33:49.613Z,13.53
2018-12-31T00:36:18.647Z,13.54
2018-12-31T00:38:47.642Z,13.54
2018-12-31T00:41:16.691Z,13.55
2018-12-31T00:43:45.723Z,13.56
2018-12-31T00:46:14.772Z,13.56
2018-12-31T00:48:43.816Z,13.57
2018-12-31T05:52:19.969Z,13.90
2018-12-31T05:54:49.088Z,13.89
2018-12-31T05:57:18.155Z,13.91
2018-12-31T05:59:47.285Z,13.92
2018-12-31T06:02:16.378Z,13.93
2018-12-31T06:04:45.480Z,13.97
2018-12-31T06:07:14.548Z,13.99
2018-12-31T06:09:43.839Z,13.97
2018-12-31T06:12:12.884Z,13.96
2018-12-31T06:14:41.969Z,13.98
2018-12-31T06:17:11.025Z,13.98
2018-12-31T06:19:40.144Z,14.00
2018-12-31T06:22:10.445Z,14.00
2018-12-31T06:24:39.459Z,14.02
2018-12-31T06:27:08.515Z,14.01
2018-12-31T06:29:37.627Z,14.02
2018-12-31T06:32:06.776Z,14.02
2018-12-31T06:34:35.881Z,14.06
2018-12-31T06:37:05.102Z,14.03
2018-12-31T06:39:34.175Z,14.05
2018-12-31T06:42:03.217Z,14.01
2018-12-31T06:44:32.296Z,14.05
2018-12-31T06:47:01.380Z,14.05
2018-12-31T06:49:30.504Z,14.05
2018-12-31T06:51:59.568Z,14.07
2018-12-31T06:54:28.734Z,14.06
2018-12-31T06:56:57.845Z,14.05
2018-12-31T06:59:26.938Z,14.08
2018-12-31T07:01:56.060Z,14.09
2018-12-31T07:04:25.154Z,14.11
2018-12-31T07:06:54.257Z,14.10
2018-12-31T07:09:23.326Z,14.12
2018-12-31T07:11:52.430Z,14.12
2018-12-31T07:14:21.590Z,14.12
2018-12-31T07:16:50.746Z,14.15
2018-12-31T07:19:20.112Z,14.16
2018-12-31T07:21:49.207Z,14.18
2018-12-31T07:24:18.295Z,14.18
2018-12-31T07:26:47.375Z,14.20
2018-12-31T07:29:16.722Z,14.21
2018-12-31T07:31:45.872Z,14.21
2018-12-31T07:34:14.993Z,14.21
2018-12-31T07:36:44.125Z,14.23
2018-12-31T07:39:13.227Z,14.24
2018-12-31T07:41:42.331Z,14.25
2018-12-31T07:44:11.393Z,14.27
2018-12-31T07:46:40.557Z,14.28
2018-12-31T07:49:09.722Z,14.29
2018-12-31T07:51:38.793Z,14.30
2018-12-31T07:54:07.915Z,14.30
2018-12-31T07:56:37.094Z,14.30
2018-12-31T07:59:06.309Z,14.27
2018-12-31T08:01:35.445Z,14.27
2018-12-31T08:04:06.732Z,14.27
2018-12-31T08:06:35.815Z,14.29
2018-12-31T08:09:06.378Z,14.30
2018-12-31T08:11:35.473Z,14.33
2018-12-31T08:14:04.699Z,14.33
2018-12-31T08:16:33.884Z,14.35
2018-12-31T08:19:02.982Z,14.37
2018-12-31T08:21:32.078Z,14.37
2018-12-31T08:24:01.170Z,14.41
2018-12-31T08:26:30.240Z,14.43
2018-12-31T08:28:59.359Z,14.44
2018-12-31T08:31:28.495Z,14.46
2018-12-31T08:33:57.554Z,14.44
2018-12-31T08:36:27.881Z,14.46
2018-12-31T08:38:56.976Z,14.46
2018-12-31T08:41:26.067Z,14.45
2018-12-31T08:43:55.150Z,14.44
2018-12-31T08:46:24.267Z,14.44
2018-12-31T08:48:53.343Z,14.44
2018-12-31T08:51:22.395Z,14.46
2018-12-31T08:53:51.491Z,14.45
2018-12-31T08:56:20.568Z,14.47
2018-12-31T08:58:49.725Z,14.49
2018-12-31T09:01:18.959Z,14.49
2018-12-31T09:03:48.106Z,14.51
2018-12-31T09:06:17.166Z,14.52
2018-12-31T09:08:46.285Z,14.50
2018-12-31T09:11:15.424Z,14.54
2018-12-31T09:13:44.487Z,14.57
2018-12-31T09:16:13.722Z,14.59
2018-12-31T09:18:42.799Z,14.61
2018-12-31T09:21:11.941Z,14.63
2018-12-31T09:23:41.065Z,14.64
2018-12-31T09:26:11.208Z,14.65
2018-12-31T09:28:40.500Z,14.66
2018-12-31T09:31:09.631Z,14.68
2018-12-31T09:33:38.753Z,14.70
2018-12-31T09:36:07.920Z,14.73
2018-12-31T09:38:37.171Z,14.75
2018-12-31T09:41:06.586Z,14.76
2018-12-31T09:43:35.739Z,14.80
2018-12-31T09:46:05.054Z,14.82
2018-12-31T09:48:34.175Z,14.86
2018-12-31T09:51:03.358Z,14.88
2018-12-31T09:53:32.456Z,14.91
2018-12-31T09:56:01.618Z,14.97
2018-12-31T09:58:30.733Z,14.97
2018-12-31T10:00:59.802Z,14.93
2018-12-31T10:03:28.901Z,14.89
2018-12-31T10:05:57.991Z,14.86
2018-12-31T10:08:27.116Z,14.86
2018-12-31T10:10:56.351Z,14.88
2018-12-31T10:13:25.447Z,14.89
2018-12-31T10:15:54.660Z,14.90
2018-12-31T10:18:23.782Z,14.88
2018-12-31T10:20:52.867Z,14.88
2018-12-31T10:23:21.957Z,14.86
2018-12-31T10:25:52.144Z,14.86
2018-12-31T10:28:21.281Z,14.85
2018-12-31T10:30:50.636Z,14.85
2018-12-31T10:33:19.782Z,14.85
2018-12-31T10:35:49.115Z,14.86
2018-12-31T10:38:21.699Z,14.86
2018-12-31T10:40:50.839Z,14.86
2018-12-31T10:43:19.945Z,14.88
2018-12-31T10:45:49.207Z,14.84
2018-12-31T10:48:18.527Z,14.85
2018-12-31T10:50:47.868Z,14.86
2018-12-31T10:53:17.192Z,14.88
2018-12-31T10:55:46.243Z,14.90
2018-12-31T10:58:15.402Z,14.91
2018-12-31T11:00:44.526Z,14.90
2018-12-31T11:03:13.714Z,14.87
2018-12-31T11:05:42.904Z,14.88
2018-12-31T11:08:12.049Z,14.88
2018-12-31T11:10:41.230Z,14.88
2018-12-31T11:13:10.563Z,14.86
2018-12-31T11:15:39.625Z,14.89
2018-12-31T11:18:08.761Z,14.88
2018-12-31T11:20:37.889Z,14.90
2018-12-31T11:23:07.116Z,14.90
2018-12-31T11:25:37.772Z,14.92
2018-12-31T11:28:06.986Z,14.91
2018-12-31T11:30:36.063Z,14.91
2018-12-31T11:33:05.210Z,14.93
2018-12-31T11:35:34.266Z,14.92
2018-12-31T11:38:03.390Z,14.93
2018-12-31T11:40:32.489Z,14.91
2018-12-31T11:43:01.651Z,14.92
2018-12-31T11:45:30.778Z,14.91
2018-12-31T11:48:03.013Z,14.91
2018-12-31T11:50:32.361Z,14.92
2018-12-31T11:53:01.426Z,14.95
2018-12-31T11:55:31.220Z,14.91
2018-12-31T11:58:00.316Z,14.94
2018-12-31T12:00:29.451Z,14.94
2018-12-31T12:02:58.682Z,14.95
2018-12-31T12:05:27.833Z,14.96
2018-12-31T12:07:56.862Z,14.98
2018-12-31T12:10:26.090Z,14.99
2018-12-31T12:12:55.148Z,14.98
2018-12-31T12:15:24.384Z,14.96
2018-12-31T12:17:54.689Z,14.97
2018-12-31T12:20:23.875Z,14.98
2018-12-31T12:22:53.202Z,14.99
2018-12-31T12:25:22.259Z,14.99
2018-12-31T12:27:51.363Z,14.98
2018-12-31T12:30:20.578Z,14.98
2018-12-31T12:32:49.727Z,14.98
2018-12-31T12:35:18.783Z,14.99
2018-12-31T12:37:48.614Z,15.00
2018-12-31T12:40:17.739Z,15.02
2018-12-31T12:42:46.901Z,15.04
2018-12-31T12:45:16.060Z,15.03
2018-12-31T12:51:22.889Z,15.04
2018-12-31T12:53:52.038Z,14.97
2018-12-31T12:56:21.477Z,14.95
2018-12-31T12:58:50.477Z,14.95
2018-12-31T13:01:19.548Z,14.96
2018-12-31T13:03:48.559Z,14.94
2018-12-31T13:06:20.222Z,14.95
2018-12-31T13:08:49.964Z,14.94
2018-12-31T13:11:19.310Z,14.94
2018-12-31T13:13:48.402Z,14.95
2018-12-31T13:16:29.576Z,14.95
2018-12-31T13:18:58.867Z,14.95
2018-12-31T13:21:27.875Z,14.96
2018-12-31T13:23:56.898Z,14.94
2018-12-31T13:26:25.878Z,14.98
2018-12-31T13:29:00.579Z,14.95
2018-12-31T13:31:29.605Z,14.94
2018-12-31T13:33:58.740Z,14.92
2018-12-31T13:36:30.760Z,14.89
2018-12-31T13:38:59.804Z,14.88
2018-12-31T13:41:35.023Z,14.86
2018-12-31T13:44:12.403Z,14.85
2018-12-31T13:46:44.482Z,14.87
2018-12-31T13:49:13.738Z,14.87
2018-12-31T13:51:54.770Z,14.89
2018-12-31T13:54:23.862Z,14.93
2018-12-31T13:56:53.025Z,14.96
2018-12-31T13:59:22.055Z,14.98
2018-12-31T14:01:51.066Z,14.99
2018-12-31T14:04:20.163Z,15.00
2018-12-31T14:06:49.161Z,14.99
2018-12-31T14:09:18.185Z,14.34
2018-12-31T14:11:47.307Z,14.98
2018-12-31T14:14:16.336Z,14.95
2018-12-31T14:16:45.332Z,14.92
2018-12-31T14:19:14.441Z,14.90
2018-12-31T14:21:43.634Z,14.91
2018-12-31T14:24:12.771Z,14.95
2018-12-31T14:26:41.795Z,14.95
2018-12-31T14:29:10.822Z,14.96
2018-12-31T14:31:39.888Z,14.96
2018-12-31T14:34:08.946Z,14.97
2018-12-31T14:36:38.039Z,14.99
2018-12-31T14:39:07.815Z,14.97
2018-12-31T14:41:36.855Z,15.00
2018-12-31T14:44:05.923Z,14.98
2018-12-31T14:46:35.121Z,14.97
2018-12-31T14:49:04.200Z,14.96
2018-12-31T14:51:33.194Z,14.95
2018-12-31T14:54:02.262Z,14.91
2018-12-31T14:56:31.282Z,14.91
2018-12-31T14:59:00.380Z,14.90
2018-12-31T15:01:29.487Z,14.89
2018-12-31T15:03:58.584Z,14.88
2018-12-31T15:06:27.637Z,14.84
2018-12-31T15:08:56.693Z,14.83
2018-12-31T15:11:25.726Z,14.81
2018-12-31T15:13:54.929Z,14.78
2018-12-31T15:16:23.972Z,14.75
2018-12-31T15:18:53.193Z,14.74
2018-12-31T15:21:22.447Z,14.73
2018-12-31T15:23:51.565Z,14.71
2018-12-31T15:26:20.563Z,14.71
2018-12-31T15:28:50.517Z,14.71
2018-12-31T15:31:19.658Z,14.69
2018-12-31T15:33:48.633Z,14.67
2018-12-31T15:36:17.721Z,14.64
2018-12-31T15:38:46.897Z,14.62
2018-12-31T15:41:15.983Z,14.59
2018-12-31T15:43:44.988Z,14.60
2018-12-31T15:46:20.202Z,14.57
2018-12-31T15:48:44.792Z,14.57
2018-12-31T15:51:14.213Z,14.55
2018-12-31T15:53:43.381Z,14.57
2018-12-31T15:56:12.441Z,14.56
2018-12-31T15:58:41.471Z,14.56
2018-12-31T16:01:10.527Z,14.54
2018-12-31T16:03:39.844Z,14.55
2018-12-31T16:06:09.178Z,14.54
2018-12-31T16:08:38.242Z,14.55
2018-12-31T16:11:07.275Z,14.54
2018-12-31T16:13:36.274Z,14.55
2018-12-31T16:16:06.394Z,14.55
2018-12-31T16:18:35.374Z,14.53
2018-12-31T16:21:05.831Z,14.52
2018-12-31T16:23:34.991Z,14.52
2018-12-31T16:26:04.027Z,14.52
2018-12-31T16:28:33.488Z,14.50
2018-12-31T16:31:02.560Z,14.49
2018-12-31T16:33:31.599Z,14.48
2018-12-31T16:36:01.066Z,14.47
2018-12-31T16:38:30.128Z,14.47
2018-12-31T16:40:59.434Z,14.47
2018-12-31T16:43:28.422Z,14.46
2018-12-31T16:45:57.498Z,14.47
2018-12-31T16:48:26.521Z,14.49
2018-12-31T16:50:55.571Z,14.48
2018-12-31T16:53:24.908Z,14.47
2018-12-31T16:55:54.081Z,14.40
2018-12-31T16:58:23.137Z,14.41
2018-12-31T17:00:52.188Z,14.41
2018-12-31T17:03:21.237Z,14.39
2018-12-31T17:05:50.618Z,14.38
2018-12-31T17:08:19.673Z,14.38
2018-12-31T17:10:51.789Z,14.38
2018-12-31T17:13:20.889Z,14.38
2018-12-31T17:15:49.918Z,14.38
2018-12-31T17:18:19.298Z,14.38
2018-12-31T17:20:48.360Z,14.38
2018-12-31T17:23:17.421Z,14.38
2018-12-31T17:25:46.446Z,14.40
2018-12-31T17:28:15.573Z,14.40
2018-12-31T17:30:44.976Z,14.35
2018-12-31T17:33:14.101Z,14.36
2018-12-31T17:35:44.847Z,14.33
2018-12-31T17:38:13.978Z,14.30
2018-12-31T17:40:43.209Z,14.28
2018-12-31T17:43:12.584Z,14.32
2018-12-31T17:45:41.513Z,14.33
2018-12-31T17:48:10.671Z,14.32
2018-12-31T17:50:39.671Z,14.32
2018-12-31T17:53:08.706Z,14.33
2018-12-31T17:55:38.185Z,14.33
2018-12-31T17:58:07.301Z,14.34
2018-12-31T18:00:36.327Z,14.33
2018-12-31T23:45:45.707Z,13.28
2018-12-31T23:48:14.731Z,13.26
2018-12-31T23:50:43.712Z,13.25
2018-12-31T23:53:13.006Z,13.27
2018-12-31T23:55:42.004Z,13.25
2018-12-31T23:58:10.981Z,13.23
